<?xml version="1.0" encoding="UTF-8" standalone="no" ?>
<gpx xmlns="http://www.topografix.com/GPX/1/1" xmlns:xsi="http://www.w3.org/2001/XMLSchema-instance" xsi:schemaLocation="http://www.topografix.com/GPX/1/1 http://www.topografix.com/GPX/1/1/gpx.xsd" version="1.1" creator="VisuGPX - https://www.visugpx.com">
  <metadata>
    <name>ChapelleE_GesvresRagon_11-20km</name>
    <desc><![CDATA[gnerando idor:10119982_10751486_12328489_12879936_8202803]]></desc>
  </metadata>
  <trk>
    <name><![CDATA[ChapelleE_VerriereTreilliersVFRagon_20km-12879936]]></name>
    <extensions>
      <line xmlns="http://www.topografix.com/GPX/gpx_style/0/2">
        <color>FF0000</color>
        <opacity>1</opacity>
        <width>4</width>
      </line>
    </extensions>
    <trkseg>
      <trkpt lat="47.27922" lon="-1.56551">
        <ele>18</ele>
        <time>2023-11-03T07:49:45Z</time>
      </trkpt>
      <trkpt lat="47.27934" lon="-1.56624">
        <ele>17</ele>
        <time>2023-11-03T07:50:53Z</time>
      </trkpt>
      <trkpt lat="47.27936" lon="-1.5665">
        <ele>16</ele>
        <time>2023-11-03T07:51:17Z</time>
      </trkpt>
      <trkpt lat="47.27944" lon="-1.56678">
        <ele>17</ele>
        <time>2023-11-03T07:51:44Z</time>
      </trkpt>
      <trkpt lat="47.27962" lon="-1.56679">
        <ele>18</ele>
        <time>2023-11-03T07:52:08Z</time>
      </trkpt>
      <trkpt lat="47.28006" lon="-1.56696">
        <ele>20</ele>
        <time>2023-11-03T07:53:09Z</time>
      </trkpt>
      <trkpt lat="47.28026" lon="-1.56699">
        <ele>19</ele>
        <time>2023-11-03T07:53:36Z</time>
      </trkpt>
      <trkpt lat="47.2805" lon="-1.56698">
        <ele>18</ele>
        <time>2023-11-03T07:54:08Z</time>
      </trkpt>
      <trkpt lat="47.28072" lon="-1.56692">
        <ele>17</ele>
        <time>2023-11-03T07:54:38Z</time>
      </trkpt>
      <trkpt lat="47.2809" lon="-1.56686">
        <ele>17</ele>
        <time>2023-11-03T07:55:02Z</time>
      </trkpt>
      <trkpt lat="47.2811" lon="-1.56675">
        <ele>16</ele>
        <time>2023-11-03T07:55:31Z</time>
      </trkpt>
      <trkpt lat="47.28131" lon="-1.56678">
        <ele>17</ele>
        <time>2023-11-03T07:55:59Z</time>
      </trkpt>
      <trkpt lat="47.28154" lon="-1.5668">
        <ele>17</ele>
        <time>2023-11-03T07:56:30Z</time>
      </trkpt>
      <trkpt lat="47.28177" lon="-1.56671">
        <ele>16</ele>
        <time>2023-11-03T07:57:01Z</time>
      </trkpt>
      <trkpt lat="47.28196" lon="-1.56665">
        <ele>16</ele>
        <time>2023-11-03T07:57:27Z</time>
      </trkpt>
      <trkpt lat="47.28212" lon="-1.56642">
        <ele>15</ele>
        <time>2023-11-03T07:57:57Z</time>
      </trkpt>
      <trkpt lat="47.28229" lon="-1.5662">
        <ele>13</ele>
        <time>2023-11-03T07:58:27Z</time>
      </trkpt>
      <trkpt lat="47.28245" lon="-1.56605">
        <ele>12</ele>
        <time>2023-11-03T07:58:53Z</time>
      </trkpt>
      <trkpt lat="47.28261" lon="-1.56589">
        <ele>10</ele>
        <time>2023-11-03T07:59:18Z</time>
      </trkpt>
      <trkpt lat="47.28278" lon="-1.56578">
        <ele>11</ele>
        <time>2023-11-03T07:59:43Z</time>
      </trkpt>
      <trkpt lat="47.28295" lon="-1.56586">
        <ele>11</ele>
        <time>2023-11-03T08:00:07Z</time>
      </trkpt>
      <trkpt lat="47.28315" lon="-1.566">
        <ele>12</ele>
        <time>2023-11-03T08:00:37Z</time>
      </trkpt>
      <trkpt lat="47.28333" lon="-1.56609">
        <ele>13</ele>
        <time>2023-11-03T08:01:02Z</time>
      </trkpt>
      <trkpt lat="47.28349" lon="-1.56623">
        <ele>13</ele>
        <time>2023-11-03T08:01:27Z</time>
      </trkpt>
      <trkpt lat="47.28354" lon="-1.56652">
        <ele>15</ele>
        <time>2023-11-03T08:01:54Z</time>
      </trkpt>
      <trkpt lat="47.28346" lon="-1.56681">
        <ele>17</ele>
        <time>2023-11-03T08:02:22Z</time>
      </trkpt>
      <trkpt lat="47.28337" lon="-1.56705">
        <ele>19</ele>
        <time>2023-11-03T08:02:47Z</time>
      </trkpt>
      <trkpt lat="47.28334" lon="-1.56733">
        <ele>22</ele>
        <time>2023-11-03T08:03:13Z</time>
      </trkpt>
      <trkpt lat="47.28332" lon="-1.56766">
        <ele>24</ele>
        <time>2023-11-03T08:03:43Z</time>
      </trkpt>
      <trkpt lat="47.28333" lon="-1.56795">
        <ele>25</ele>
        <time>2023-11-03T08:04:09Z</time>
      </trkpt>
      <trkpt lat="47.28337" lon="-1.56827">
        <ele>27</ele>
        <time>2023-11-03T08:04:38Z</time>
      </trkpt>
      <trkpt lat="47.28354" lon="-1.56815">
        <ele>25</ele>
        <time>2023-11-03T08:05:04Z</time>
      </trkpt>
      <trkpt lat="47.28359" lon="-1.56788">
        <ele>23</ele>
        <time>2023-11-03T08:05:29Z</time>
      </trkpt>
      <trkpt lat="47.28376" lon="-1.56771">
        <ele>22</ele>
        <time>2023-11-03T08:05:56Z</time>
      </trkpt>
      <trkpt lat="47.28386" lon="-1.56745">
        <ele>20</ele>
        <time>2023-11-03T08:06:23Z</time>
      </trkpt>
      <trkpt lat="47.2839" lon="-1.56717">
        <ele>18</ele>
        <time>2023-11-03T08:06:49Z</time>
      </trkpt>
      <trkpt lat="47.28402" lon="-1.56696">
        <ele>16</ele>
        <time>2023-11-03T08:07:14Z</time>
      </trkpt>
      <trkpt lat="47.28413" lon="-1.56674">
        <ele>14</ele>
        <time>2023-11-03T08:07:39Z</time>
      </trkpt>
      <trkpt lat="47.2842" lon="-1.56643">
        <ele>13</ele>
        <time>2023-11-03T08:08:08Z</time>
      </trkpt>
      <trkpt lat="47.28428" lon="-1.56611">
        <ele>12</ele>
        <time>2023-11-03T08:08:39Z</time>
      </trkpt>
      <trkpt lat="47.28437" lon="-1.56586">
        <ele>11</ele>
        <time>2023-11-03T08:09:05Z</time>
      </trkpt>
      <trkpt lat="47.28454" lon="-1.56577">
        <ele>11</ele>
        <time>2023-11-03T08:09:29Z</time>
      </trkpt>
      <trkpt lat="47.28472" lon="-1.56573">
        <ele>12</ele>
        <time>2023-11-03T08:09:53Z</time>
      </trkpt>
      <trkpt lat="47.28493" lon="-1.56577">
        <ele>12</ele>
        <time>2023-11-03T08:10:22Z</time>
      </trkpt>
      <trkpt lat="47.28503" lon="-1.56602">
        <ele>13</ele>
        <time>2023-11-03T08:10:48Z</time>
      </trkpt>
      <trkpt lat="47.28505" lon="-1.56634">
        <ele>14</ele>
        <time>2023-11-03T08:11:17Z</time>
      </trkpt>
      <trkpt lat="47.285" lon="-1.56662">
        <ele>16</ele>
        <time>2023-11-03T08:11:43Z</time>
      </trkpt>
      <trkpt lat="47.28509" lon="-1.56688">
        <ele>16</ele>
        <time>2023-11-03T08:12:10Z</time>
      </trkpt>
      <trkpt lat="47.28524" lon="-1.5671">
        <ele>16</ele>
        <time>2023-11-03T08:12:38Z</time>
      </trkpt>
      <trkpt lat="47.2854" lon="-1.56732">
        <ele>16</ele>
        <time>2023-11-03T08:13:07Z</time>
      </trkpt>
      <trkpt lat="47.28556" lon="-1.56749">
        <ele>15</ele>
        <time>2023-11-03T08:13:33Z</time>
      </trkpt>
      <trkpt lat="47.28573" lon="-1.56761">
        <ele>15</ele>
        <time>2023-11-03T08:13:59Z</time>
      </trkpt>
      <trkpt lat="47.2861" lon="-1.56781">
        <ele>15</ele>
        <time>2023-11-03T08:14:51Z</time>
      </trkpt>
      <trkpt lat="47.28631" lon="-1.56789">
        <ele>15</ele>
        <time>2023-11-03T08:15:20Z</time>
      </trkpt>
      <trkpt lat="47.28652" lon="-1.56794">
        <ele>15</ele>
        <time>2023-11-03T08:15:48Z</time>
      </trkpt>
      <trkpt lat="47.28667" lon="-1.56809">
        <ele>16</ele>
        <time>2023-11-03T08:16:13Z</time>
      </trkpt>
      <trkpt lat="47.28681" lon="-1.56828">
        <ele>18</ele>
        <time>2023-11-03T08:16:38Z</time>
      </trkpt>
      <trkpt lat="47.287" lon="-1.56833">
        <ele>18</ele>
        <time>2023-11-03T08:17:04Z</time>
      </trkpt>
      <trkpt lat="47.28718" lon="-1.56838">
        <ele>19</ele>
        <time>2023-11-03T08:17:28Z</time>
      </trkpt>
      <trkpt lat="47.28732" lon="-1.56857">
        <ele>21</ele>
        <time>2023-11-03T08:17:54Z</time>
      </trkpt>
      <trkpt lat="47.28751" lon="-1.56861">
        <ele>22</ele>
        <time>2023-11-03T08:18:19Z</time>
      </trkpt>
      <trkpt lat="47.28769" lon="-1.56853">
        <ele>21</ele>
        <time>2023-11-03T08:18:44Z</time>
      </trkpt>
      <trkpt lat="47.28787" lon="-1.56861">
        <ele>22</ele>
        <time>2023-11-03T08:19:09Z</time>
      </trkpt>
      <trkpt lat="47.28807" lon="-1.56853">
        <ele>20</ele>
        <time>2023-11-03T08:19:37Z</time>
      </trkpt>
      <trkpt lat="47.28826" lon="-1.5685">
        <ele>19</ele>
        <time>2023-11-03T08:20:03Z</time>
      </trkpt>
      <trkpt lat="47.28844" lon="-1.56841">
        <ele>18</ele>
        <time>2023-11-03T08:20:28Z</time>
      </trkpt>
      <trkpt lat="47.28858" lon="-1.56823">
        <ele>17</ele>
        <time>2023-11-03T08:20:53Z</time>
      </trkpt>
      <trkpt lat="47.28872" lon="-1.56806">
        <ele>18</ele>
        <time>2023-11-03T08:21:17Z</time>
      </trkpt>
      <trkpt lat="47.28886" lon="-1.56782">
        <ele>17</ele>
        <time>2023-11-03T08:21:46Z</time>
      </trkpt>
      <trkpt lat="47.28891" lon="-1.56752">
        <ele>15</ele>
        <time>2023-11-03T08:22:14Z</time>
      </trkpt>
      <trkpt lat="47.28901" lon="-1.56726">
        <ele>14</ele>
        <time>2023-11-03T08:22:41Z</time>
      </trkpt>
      <trkpt lat="47.28911" lon="-1.56701">
        <ele>13</ele>
        <time>2023-11-03T08:23:07Z</time>
      </trkpt>
      <trkpt lat="47.2892" lon="-1.56673">
        <ele>13</ele>
        <time>2023-11-03T08:23:35Z</time>
      </trkpt>
      <trkpt lat="47.28935" lon="-1.56648">
        <ele>15</ele>
        <time>2023-11-03T08:24:05Z</time>
      </trkpt>
      <trkpt lat="47.28939" lon="-1.56619">
        <ele>16</ele>
        <time>2023-11-03T08:24:32Z</time>
      </trkpt>
      <trkpt lat="47.28958" lon="-1.56602">
        <ele>16</ele>
        <time>2023-11-03T08:25:02Z</time>
      </trkpt>
      <trkpt lat="47.28976" lon="-1.56606">
        <ele>16</ele>
        <time>2023-11-03T08:25:26Z</time>
      </trkpt>
      <trkpt lat="47.2899" lon="-1.56623">
        <ele>16</ele>
        <time>2023-11-03T08:25:50Z</time>
      </trkpt>
      <trkpt lat="47.29006" lon="-1.56647">
        <ele>18</ele>
        <time>2023-11-03T08:26:21Z</time>
      </trkpt>
      <trkpt lat="47.29021" lon="-1.56666">
        <ele>17</ele>
        <time>2023-11-03T08:26:47Z</time>
      </trkpt>
      <trkpt lat="47.29029" lon="-1.56695">
        <ele>18</ele>
        <time>2023-11-03T08:27:15Z</time>
      </trkpt>
      <trkpt lat="47.29043" lon="-1.56714">
        <ele>18</ele>
        <time>2023-11-03T08:27:41Z</time>
      </trkpt>
      <trkpt lat="47.2905" lon="-1.56744">
        <ele>19</ele>
        <time>2023-11-03T08:28:09Z</time>
      </trkpt>
      <trkpt lat="47.29054" lon="-1.56774">
        <ele>21</ele>
        <time>2023-11-03T08:28:37Z</time>
      </trkpt>
      <trkpt lat="47.29064" lon="-1.56801">
        <ele>24</ele>
        <time>2023-11-03T08:29:05Z</time>
      </trkpt>
      <trkpt lat="47.2908" lon="-1.56817">
        <ele>26</ele>
        <time>2023-11-03T08:29:31Z</time>
      </trkpt>
      <trkpt lat="47.29102" lon="-1.56821">
        <ele>26</ele>
        <time>2023-11-03T08:30:00Z</time>
      </trkpt>
      <trkpt lat="47.29126" lon="-1.56819">
        <ele>25</ele>
        <time>2023-11-03T08:30:32Z</time>
      </trkpt>
      <trkpt lat="47.29144" lon="-1.56819">
        <ele>25</ele>
        <time>2023-11-03T08:30:56Z</time>
      </trkpt>
      <trkpt lat="47.29166" lon="-1.56807">
        <ele>23</ele>
        <time>2023-11-03T08:31:28Z</time>
      </trkpt>
      <trkpt lat="47.29184" lon="-1.568">
        <ele>21</ele>
        <time>2023-11-03T08:31:53Z</time>
      </trkpt>
      <trkpt lat="47.292" lon="-1.56783">
        <ele>19</ele>
        <time>2023-11-03T08:32:19Z</time>
      </trkpt>
      <trkpt lat="47.29221" lon="-1.56777">
        <ele>18</ele>
        <time>2023-11-03T08:32:47Z</time>
      </trkpt>
      <trkpt lat="47.29236" lon="-1.56796">
        <ele>19</ele>
        <time>2023-11-03T08:33:14Z</time>
      </trkpt>
      <trkpt lat="47.29235" lon="-1.56603">
        <ele>21</ele>
        <time>2023-11-03T08:36:08Z</time>
      </trkpt>
      <trkpt lat="47.29525" lon="-1.56771">
        <ele>30</ele>
        <time>2023-11-03T08:43:04Z</time>
      </trkpt>
      <trkpt lat="47.30401" lon="-1.56531">
        <ele>31</ele>
        <time>2023-11-03T09:02:53Z</time>
      </trkpt>
      <trkpt lat="47.30449" lon="-1.56337">
        <ele>33</ele>
        <time>2023-11-03T09:06:00Z</time>
      </trkpt>
      <trkpt lat="47.30626" lon="-1.56577">
        <ele>38</ele>
        <time>2023-11-03T09:11:21Z</time>
      </trkpt>
      <trkpt lat="47.30747" lon="-1.5649">
        <ele>38</ele>
        <time>2023-11-03T09:14:21Z</time>
      </trkpt>
      <trkpt lat="47.31013" lon="-1.57011">
        <ele>42</ele>
        <time>2023-11-03T09:24:11Z</time>
      </trkpt>
      <trkpt lat="47.32203" lon="-1.58363">
        <ele>39</ele>
        <time>2023-11-03T09:57:35Z</time>
      </trkpt>
      <trkpt lat="47.32397" lon="-1.58726">
        <ele>43</ele>
        <time>2023-11-03T10:04:33Z</time>
      </trkpt>
      <trkpt lat="47.32581" lon="-1.59552">
        <ele>43</ele>
        <time>2023-11-03T10:17:40Z</time>
      </trkpt>
      <trkpt lat="47.3284" lon="-1.60772">
        <ele>51</ele>
        <time>2023-11-03T10:36:56Z</time>
      </trkpt>
      <trkpt lat="47.33016" lon="-1.61727">
        <ele>59</ele>
        <time>2023-11-03T10:51:51Z</time>
      </trkpt>
      <trkpt lat="47.32878" lon="-1.61885">
        <ele>57</ele>
        <time>2023-11-03T10:55:44Z</time>
      </trkpt>
      <trkpt lat="47.32847" lon="-1.61788">
        <ele>56</ele>
        <time>2023-11-03T10:57:21Z</time>
      </trkpt>
      <trkpt lat="47.3248" lon="-1.61568">
        <ele>49</ele>
        <time>2023-11-03T11:06:10Z</time>
      </trkpt>
      <trkpt lat="47.32207" lon="-1.61752">
        <ele>32</ele>
        <time>2023-11-03T11:12:51Z</time>
      </trkpt>
      <trkpt lat="47.32058" lon="-1.61614">
        <ele>19</ele>
        <time>2023-11-03T11:16:45Z</time>
      </trkpt>
      <trkpt lat="47.31889" lon="-1.61711">
        <ele>26</ele>
        <time>2023-11-03T11:20:47Z</time>
      </trkpt>
      <trkpt lat="47.31899" lon="-1.61543">
        <ele>22</ele>
        <time>2023-11-03T11:23:20Z</time>
      </trkpt>
      <trkpt lat="47.31754" lon="-1.61221">
        <ele>25</ele>
        <time>2023-11-03T11:29:10Z</time>
      </trkpt>
      <trkpt lat="47.31591" lon="-1.61114">
        <ele>30</ele>
        <time>2023-11-03T11:33:08Z</time>
      </trkpt>
      <trkpt lat="47.31562" lon="-1.60695">
        <ele>20</ele>
        <time>2023-11-03T11:39:29Z</time>
      </trkpt>
      <trkpt lat="47.31371" lon="-1.60418">
        <ele>31</ele>
        <time>2023-11-03T11:45:26Z</time>
      </trkpt>
      <trkpt lat="47.31214" lon="-1.60455">
        <ele>35</ele>
        <time>2023-11-03T11:48:58Z</time>
      </trkpt>
      <trkpt lat="47.31089" lon="-1.60115">
        <ele>40</ele>
        <time>2023-11-03T11:54:48Z</time>
      </trkpt>
      <trkpt lat="47.31025" lon="-1.59997">
        <ele>40</ele>
        <time>2023-11-03T11:57:05Z</time>
      </trkpt>
      <trkpt lat="47.30992" lon="-1.5973">
        <ele>31</ele>
        <time>2023-11-03T12:01:11Z</time>
      </trkpt>
      <trkpt lat="47.30982" lon="-1.59496">
        <ele>35</ele>
        <time>2023-11-03T12:04:43Z</time>
      </trkpt>
      <trkpt lat="47.30851" lon="-1.59374">
        <ele>47</ele>
        <time>2023-11-03T12:08:10Z</time>
      </trkpt>
      <trkpt lat="47.3037" lon="-1.5942">
        <ele>40</ele>
        <time>2023-11-03T12:18:53Z</time>
      </trkpt>
      <trkpt lat="47.30162" lon="-1.59389">
        <ele>49</ele>
        <time>2023-11-03T12:23:32Z</time>
      </trkpt>
      <trkpt lat="47.30023" lon="-1.59073">
        <ele>54</ele>
        <time>2023-11-03T12:29:13Z</time>
      </trkpt>
      <trkpt lat="47.2942" lon="-1.59384">
        <ele>56</ele>
        <time>2023-11-03T12:43:25Z</time>
      </trkpt>
      <trkpt lat="47.29361" lon="-1.59222">
        <ele>50</ele>
        <time>2023-11-03T12:46:11Z</time>
      </trkpt>
      <trkpt lat="47.29344" lon="-1.59229">
        <ele>50</ele>
        <time>2023-11-03T12:46:35Z</time>
      </trkpt>
      <trkpt lat="47.29322" lon="-1.59234">
        <ele>49</ele>
        <time>2023-11-03T12:47:05Z</time>
      </trkpt>
      <trkpt lat="47.29309" lon="-1.59258">
        <ele>50</ele>
        <time>2023-11-03T12:47:33Z</time>
      </trkpt>
      <trkpt lat="47.29302" lon="-1.59288">
        <ele>50</ele>
        <time>2023-11-03T12:48:01Z</time>
      </trkpt>
      <trkpt lat="47.29299" lon="-1.5932">
        <ele>51</ele>
        <time>2023-11-03T12:48:31Z</time>
      </trkpt>
      <trkpt lat="47.29291" lon="-1.59351">
        <ele>52</ele>
        <time>2023-11-03T12:49:01Z</time>
      </trkpt>
      <trkpt lat="47.29288" lon="-1.59384">
        <ele>52</ele>
        <time>2023-11-03T12:49:31Z</time>
      </trkpt>
      <trkpt lat="47.29283" lon="-1.59413">
        <ele>52</ele>
        <time>2023-11-03T12:49:58Z</time>
      </trkpt>
      <trkpt lat="47.29282" lon="-1.5944">
        <ele>53</ele>
        <time>2023-11-03T12:50:22Z</time>
      </trkpt>
      <trkpt lat="47.29278" lon="-1.59467">
        <ele>53</ele>
        <time>2023-11-03T12:50:47Z</time>
      </trkpt>
      <trkpt lat="47.29275" lon="-1.59495">
        <ele>53</ele>
        <time>2023-11-03T12:51:13Z</time>
      </trkpt>
      <trkpt lat="47.2927" lon="-1.59525">
        <ele>53</ele>
        <time>2023-11-03T12:51:41Z</time>
      </trkpt>
      <trkpt lat="47.29266" lon="-1.59553">
        <ele>53</ele>
        <time>2023-11-03T12:52:07Z</time>
      </trkpt>
      <trkpt lat="47.29263" lon="-1.59583">
        <ele>53</ele>
        <time>2023-11-03T12:52:34Z</time>
      </trkpt>
      <trkpt lat="47.29254" lon="-1.59611">
        <ele>53</ele>
        <time>2023-11-03T12:53:02Z</time>
      </trkpt>
      <trkpt lat="47.29237" lon="-1.59624">
        <ele>53</ele>
        <time>2023-11-03T12:53:28Z</time>
      </trkpt>
      <trkpt lat="47.29241" lon="-1.59653">
        <ele>52</ele>
        <time>2023-11-03T12:53:55Z</time>
      </trkpt>
      <trkpt lat="47.29244" lon="-1.59681">
        <ele>52</ele>
        <time>2023-11-03T12:54:20Z</time>
      </trkpt>
      <trkpt lat="47.29236" lon="-1.59705">
        <ele>52</ele>
        <time>2023-11-03T12:54:44Z</time>
      </trkpt>
      <trkpt lat="47.29216" lon="-1.59703">
        <ele>52</ele>
        <time>2023-11-03T12:55:11Z</time>
      </trkpt>
      <trkpt lat="47.29178" lon="-1.59702">
        <ele>53</ele>
        <time>2023-11-03T12:56:02Z</time>
      </trkpt>
      <trkpt lat="47.29157" lon="-1.59699">
        <ele>54</ele>
        <time>2023-11-03T12:56:30Z</time>
      </trkpt>
      <trkpt lat="47.29138" lon="-1.59697">
        <ele>55</ele>
        <time>2023-11-03T12:56:55Z</time>
      </trkpt>
      <trkpt lat="47.29117" lon="-1.59706">
        <ele>56</ele>
        <time>2023-11-03T12:57:25Z</time>
      </trkpt>
      <trkpt lat="47.29094" lon="-1.59704">
        <ele>57</ele>
        <time>2023-11-03T12:57:55Z</time>
      </trkpt>
      <trkpt lat="47.29075" lon="-1.59698">
        <ele>58</ele>
        <time>2023-11-03T12:58:21Z</time>
      </trkpt>
      <trkpt lat="47.29039" lon="-1.59686">
        <ele>59</ele>
        <time>2023-11-03T12:59:11Z</time>
      </trkpt>
      <trkpt lat="47.29018" lon="-1.59676">
        <ele>59</ele>
        <time>2023-11-03T12:59:40Z</time>
      </trkpt>
      <trkpt lat="47.28996" lon="-1.59671">
        <ele>60</ele>
        <time>2023-11-03T13:00:10Z</time>
      </trkpt>
      <trkpt lat="47.28957" lon="-1.59656">
        <ele>59</ele>
        <time>2023-11-03T13:01:04Z</time>
      </trkpt>
      <trkpt lat="47.28938" lon="-1.59651">
        <ele>59</ele>
        <time>2023-11-03T13:01:29Z</time>
      </trkpt>
      <trkpt lat="47.28919" lon="-1.59644">
        <ele>58</ele>
        <time>2023-11-03T13:01:55Z</time>
      </trkpt>
      <trkpt lat="47.28898" lon="-1.59647">
        <ele>57</ele>
        <time>2023-11-03T13:02:24Z</time>
      </trkpt>
      <trkpt lat="47.28878" lon="-1.59646">
        <ele>57</ele>
        <time>2023-11-03T13:02:50Z</time>
      </trkpt>
      <trkpt lat="47.2886" lon="-1.59648">
        <ele>56</ele>
        <time>2023-11-03T13:03:14Z</time>
      </trkpt>
      <trkpt lat="47.28838" lon="-1.59649">
        <ele>56</ele>
        <time>2023-11-03T13:03:44Z</time>
      </trkpt>
      <trkpt lat="47.28816" lon="-1.59647">
        <ele>55</ele>
        <time>2023-11-03T13:04:13Z</time>
      </trkpt>
      <trkpt lat="47.28797" lon="-1.59632">
        <ele>54</ele>
        <time>2023-11-03T13:04:42Z</time>
      </trkpt>
      <trkpt lat="47.28782" lon="-1.59615">
        <ele>53</ele>
        <time>2023-11-03T13:05:07Z</time>
      </trkpt>
      <trkpt lat="47.28766" lon="-1.59596">
        <ele>52</ele>
        <time>2023-11-03T13:05:35Z</time>
      </trkpt>
      <trkpt lat="47.2875" lon="-1.59574">
        <ele>52</ele>
        <time>2023-11-03T13:06:04Z</time>
      </trkpt>
      <trkpt lat="47.28732" lon="-1.59554">
        <ele>52</ele>
        <time>2023-11-03T13:06:34Z</time>
      </trkpt>
      <trkpt lat="47.28717" lon="-1.59539">
        <ele>52</ele>
        <time>2023-11-03T13:06:58Z</time>
      </trkpt>
      <trkpt lat="47.28701" lon="-1.59525">
        <ele>52</ele>
        <time>2023-11-03T13:07:23Z</time>
      </trkpt>
      <trkpt lat="47.28683" lon="-1.59515">
        <ele>52</ele>
        <time>2023-11-03T13:07:49Z</time>
      </trkpt>
      <trkpt lat="47.28661" lon="-1.5951">
        <ele>52</ele>
        <time>2023-11-03T13:08:18Z</time>
      </trkpt>
      <trkpt lat="47.28642" lon="-1.59505">
        <ele>52</ele>
        <time>2023-11-03T13:08:44Z</time>
      </trkpt>
      <trkpt lat="47.28623" lon="-1.59499">
        <ele>51</ele>
        <time>2023-11-03T13:09:10Z</time>
      </trkpt>
      <trkpt lat="47.28604" lon="-1.59495">
        <ele>51</ele>
        <time>2023-11-03T13:09:36Z</time>
      </trkpt>
      <trkpt lat="47.28584" lon="-1.59491">
        <ele>51</ele>
        <time>2023-11-03T13:10:02Z</time>
      </trkpt>
      <trkpt lat="47.28565" lon="-1.59483">
        <ele>52</ele>
        <time>2023-11-03T13:10:29Z</time>
      </trkpt>
      <trkpt lat="47.28545" lon="-1.59475">
        <ele>53</ele>
        <time>2023-11-03T13:10:57Z</time>
      </trkpt>
      <trkpt lat="47.28524" lon="-1.59468">
        <ele>53</ele>
        <time>2023-11-03T13:11:25Z</time>
      </trkpt>
      <trkpt lat="47.28504" lon="-1.59465">
        <ele>54</ele>
        <time>2023-11-03T13:11:52Z</time>
      </trkpt>
      <trkpt lat="47.28483" lon="-1.59457">
        <ele>54</ele>
        <time>2023-11-03T13:12:21Z</time>
      </trkpt>
      <trkpt lat="47.28464" lon="-1.59454">
        <ele>54</ele>
        <time>2023-11-03T13:12:47Z</time>
      </trkpt>
      <trkpt lat="47.28421" lon="-1.59442">
        <ele>53</ele>
        <time>2023-11-03T13:13:45Z</time>
      </trkpt>
      <trkpt lat="47.28399" lon="-1.59437">
        <ele>54</ele>
        <time>2023-11-03T13:14:15Z</time>
      </trkpt>
      <trkpt lat="47.28376" lon="-1.59435">
        <ele>54</ele>
        <time>2023-11-03T13:14:45Z</time>
      </trkpt>
      <trkpt lat="47.28357" lon="-1.59427">
        <ele>54</ele>
        <time>2023-11-03T13:15:12Z</time>
      </trkpt>
      <trkpt lat="47.28315" lon="-1.59415">
        <ele>54</ele>
        <time>2023-11-03T13:16:09Z</time>
      </trkpt>
      <trkpt lat="47.28295" lon="-1.59402">
        <ele>55</ele>
        <time>2023-11-03T13:16:38Z</time>
      </trkpt>
      <trkpt lat="47.28277" lon="-1.5939">
        <ele>55</ele>
        <time>2023-11-03T13:17:04Z</time>
      </trkpt>
      <trkpt lat="47.28258" lon="-1.59374">
        <ele>54</ele>
        <time>2023-11-03T13:17:34Z</time>
      </trkpt>
      <trkpt lat="47.28241" lon="-1.59357">
        <ele>54</ele>
        <time>2023-11-03T13:18:01Z</time>
      </trkpt>
      <trkpt lat="47.28224" lon="-1.59343">
        <ele>54</ele>
        <time>2023-11-03T13:18:27Z</time>
      </trkpt>
      <trkpt lat="47.28211" lon="-1.59319">
        <ele>53</ele>
        <time>2023-11-03T13:18:55Z</time>
      </trkpt>
      <trkpt lat="47.28197" lon="-1.59298">
        <ele>53</ele>
        <time>2023-11-03T13:19:21Z</time>
      </trkpt>
      <trkpt lat="47.28181" lon="-1.59283">
        <ele>53</ele>
        <time>2023-11-03T13:19:47Z</time>
      </trkpt>
      <trkpt lat="47.28166" lon="-1.59267">
        <ele>52</ele>
        <time>2023-11-03T13:20:11Z</time>
      </trkpt>
      <trkpt lat="47.28153" lon="-1.59247">
        <ele>52</ele>
        <time>2023-11-03T13:20:37Z</time>
      </trkpt>
      <trkpt lat="47.28139" lon="-1.59227">
        <ele>53</ele>
        <time>2023-11-03T13:21:03Z</time>
      </trkpt>
      <trkpt lat="47.28121" lon="-1.59206">
        <ele>53</ele>
        <time>2023-11-03T13:21:33Z</time>
      </trkpt>
      <trkpt lat="47.28108" lon="-1.59184">
        <ele>53</ele>
        <time>2023-11-03T13:22:00Z</time>
      </trkpt>
      <trkpt lat="47.28094" lon="-1.59165">
        <ele>53</ele>
        <time>2023-11-03T13:22:25Z</time>
      </trkpt>
      <trkpt lat="47.2809" lon="-1.59139">
        <ele>53</ele>
        <time>2023-11-03T13:22:49Z</time>
      </trkpt>
      <trkpt lat="47.28089" lon="-1.59107">
        <ele>53</ele>
        <time>2023-11-03T13:23:18Z</time>
      </trkpt>
      <trkpt lat="47.28104" lon="-1.59087">
        <ele>53</ele>
        <time>2023-11-03T13:23:45Z</time>
      </trkpt>
      <trkpt lat="47.28117" lon="-1.59062">
        <ele>53</ele>
        <time>2023-11-03T13:24:14Z</time>
      </trkpt>
      <trkpt lat="47.28132" lon="-1.59041">
        <ele>53</ele>
        <time>2023-11-03T13:24:41Z</time>
      </trkpt>
      <trkpt lat="47.28146" lon="-1.59014">
        <ele>53</ele>
        <time>2023-11-03T13:25:12Z</time>
      </trkpt>
      <trkpt lat="47.2816" lon="-1.58988">
        <ele>52</ele>
        <time>2023-11-03T13:25:42Z</time>
      </trkpt>
      <trkpt lat="47.28175" lon="-1.58966">
        <ele>51</ele>
        <time>2023-11-03T13:26:10Z</time>
      </trkpt>
      <trkpt lat="47.28188" lon="-1.58942">
        <ele>51</ele>
        <time>2023-11-03T13:26:38Z</time>
      </trkpt>
      <trkpt lat="47.28212" lon="-1.58893">
        <ele>49</ele>
        <time>2023-11-03T13:27:33Z</time>
      </trkpt>
      <trkpt lat="47.28223" lon="-1.58868">
        <ele>49</ele>
        <time>2023-11-03T13:28:00Z</time>
      </trkpt>
      <trkpt lat="47.28209" lon="-1.58849">
        <ele>49</ele>
        <time>2023-11-03T13:28:25Z</time>
      </trkpt>
      <trkpt lat="47.28192" lon="-1.5883">
        <ele>49</ele>
        <time>2023-11-03T13:28:54Z</time>
      </trkpt>
      <trkpt lat="47.28173" lon="-1.58818">
        <ele>49</ele>
        <time>2023-11-03T13:29:21Z</time>
      </trkpt>
      <trkpt lat="47.28155" lon="-1.58811">
        <ele>50</ele>
        <time>2023-11-03T13:29:46Z</time>
      </trkpt>
      <trkpt lat="47.2814" lon="-1.58785">
        <ele>50</ele>
        <time>2023-11-03T13:30:17Z</time>
      </trkpt>
      <trkpt lat="47.28136" lon="-1.58757">
        <ele>50</ele>
        <time>2023-11-03T13:30:43Z</time>
      </trkpt>
      <trkpt lat="47.28146" lon="-1.58729">
        <ele>50</ele>
        <time>2023-11-03T13:31:11Z</time>
      </trkpt>
      <trkpt lat="47.28155" lon="-1.58706">
        <ele>50</ele>
        <time>2023-11-03T13:31:36Z</time>
      </trkpt>
      <trkpt lat="47.28166" lon="-1.58682">
        <ele>50</ele>
        <time>2023-11-03T13:32:02Z</time>
      </trkpt>
      <trkpt lat="47.2816" lon="-1.58656">
        <ele>50</ele>
        <time>2023-11-03T13:32:27Z</time>
      </trkpt>
      <trkpt lat="47.28141" lon="-1.58654">
        <ele>51</ele>
        <time>2023-11-03T13:32:52Z</time>
      </trkpt>
      <trkpt lat="47.28081" lon="-1.58644">
        <ele>52</ele>
        <time>2023-11-03T13:34:13Z</time>
      </trkpt>
      <trkpt lat="47.2806" lon="-1.58641">
        <ele>52</ele>
        <time>2023-11-03T13:34:41Z</time>
      </trkpt>
      <trkpt lat="47.28016" lon="-1.58636">
        <ele>53</ele>
        <time>2023-11-03T13:35:40Z</time>
      </trkpt>
      <trkpt lat="47.27997" lon="-1.5864">
        <ele>53</ele>
        <time>2023-11-03T13:36:05Z</time>
      </trkpt>
      <trkpt lat="47.27975" lon="-1.58636">
        <ele>53</ele>
        <time>2023-11-03T13:36:35Z</time>
      </trkpt>
      <trkpt lat="47.27957" lon="-1.58641">
        <ele>53</ele>
        <time>2023-11-03T13:36:59Z</time>
      </trkpt>
      <trkpt lat="47.27938" lon="-1.58643">
        <ele>53</ele>
        <time>2023-11-03T13:37:25Z</time>
      </trkpt>
      <trkpt lat="47.27918" lon="-1.58635">
        <ele>53</ele>
        <time>2023-11-03T13:37:52Z</time>
      </trkpt>
      <trkpt lat="47.2792" lon="-1.58606">
        <ele>53</ele>
        <time>2023-11-03T13:38:19Z</time>
      </trkpt>
      <trkpt lat="47.27901" lon="-1.58604">
        <ele>53</ele>
        <time>2023-11-03T13:38:44Z</time>
      </trkpt>
      <trkpt lat="47.2788" lon="-1.58603">
        <ele>53</ele>
        <time>2023-11-03T13:39:12Z</time>
      </trkpt>
      <trkpt lat="47.2786" lon="-1.58598">
        <ele>52</ele>
        <time>2023-11-03T13:39:39Z</time>
      </trkpt>
      <trkpt lat="47.2784" lon="-1.58589">
        <ele>52</ele>
        <time>2023-11-03T13:40:07Z</time>
      </trkpt>
      <trkpt lat="47.27819" lon="-1.58584">
        <ele>52</ele>
        <time>2023-11-03T13:40:36Z</time>
      </trkpt>
      <trkpt lat="47.27797" lon="-1.58581">
        <ele>52</ele>
        <time>2023-11-03T13:41:05Z</time>
      </trkpt>
      <trkpt lat="47.27779" lon="-1.58577">
        <ele>53</ele>
        <time>2023-11-03T13:41:29Z</time>
      </trkpt>
      <trkpt lat="47.2776" lon="-1.58566">
        <ele>53</ele>
        <time>2023-11-03T13:41:57Z</time>
      </trkpt>
      <trkpt lat="47.2774" lon="-1.58559">
        <ele>53</ele>
        <time>2023-11-03T13:42:24Z</time>
      </trkpt>
      <trkpt lat="47.27722" lon="-1.5855">
        <ele>52</ele>
        <time>2023-11-03T13:42:49Z</time>
      </trkpt>
      <trkpt lat="47.27706" lon="-1.58536">
        <ele>52</ele>
        <time>2023-11-03T13:43:14Z</time>
      </trkpt>
      <trkpt lat="47.27684" lon="-1.58533">
        <ele>51</ele>
        <time>2023-11-03T13:43:44Z</time>
      </trkpt>
      <trkpt lat="47.27665" lon="-1.58521">
        <ele>50</ele>
        <time>2023-11-03T13:44:11Z</time>
      </trkpt>
      <trkpt lat="47.27646" lon="-1.58511">
        <ele>50</ele>
        <time>2023-11-03T13:44:38Z</time>
      </trkpt>
      <trkpt lat="47.27629" lon="-1.58501">
        <ele>51</ele>
        <time>2023-11-03T13:45:03Z</time>
      </trkpt>
      <trkpt lat="47.27611" lon="-1.58494">
        <ele>51</ele>
        <time>2023-11-03T13:45:27Z</time>
      </trkpt>
      <trkpt lat="47.27592" lon="-1.58484">
        <ele>52</ele>
        <time>2023-11-03T13:45:54Z</time>
      </trkpt>
      <trkpt lat="47.27574" lon="-1.58478">
        <ele>52</ele>
        <time>2023-11-03T13:46:19Z</time>
      </trkpt>
      <trkpt lat="47.27556" lon="-1.58467">
        <ele>53</ele>
        <time>2023-11-03T13:46:45Z</time>
      </trkpt>
      <trkpt lat="47.27541" lon="-1.58451">
        <ele>52</ele>
        <time>2023-11-03T13:47:10Z</time>
      </trkpt>
      <trkpt lat="47.27521" lon="-1.58448">
        <ele>52</ele>
        <time>2023-11-03T13:47:37Z</time>
      </trkpt>
      <trkpt lat="47.27503" lon="-1.58441">
        <ele>52</ele>
        <time>2023-11-03T13:48:01Z</time>
      </trkpt>
      <trkpt lat="47.27485" lon="-1.58436">
        <ele>51</ele>
        <time>2023-11-03T13:48:26Z</time>
      </trkpt>
      <trkpt lat="47.27465" lon="-1.58434">
        <ele>51</ele>
        <time>2023-11-03T13:48:53Z</time>
      </trkpt>
      <trkpt lat="47.27443" lon="-1.58427">
        <ele>50</ele>
        <time>2023-11-03T13:49:23Z</time>
      </trkpt>
      <trkpt lat="47.27426" lon="-1.5842">
        <ele>49</ele>
        <time>2023-11-03T13:49:46Z</time>
      </trkpt>
      <trkpt lat="47.27404" lon="-1.58423">
        <ele>49</ele>
        <time>2023-11-03T13:50:16Z</time>
      </trkpt>
      <trkpt lat="47.27384" lon="-1.58416">
        <ele>48</ele>
        <time>2023-11-03T13:50:43Z</time>
      </trkpt>
      <trkpt lat="47.27362" lon="-1.58406">
        <ele>47</ele>
        <time>2023-11-03T13:51:14Z</time>
      </trkpt>
      <trkpt lat="47.27337" lon="-1.58399">
        <ele>46</ele>
        <time>2023-11-03T13:51:48Z</time>
      </trkpt>
      <trkpt lat="47.27319" lon="-1.58387">
        <ele>45</ele>
        <time>2023-11-03T13:52:14Z</time>
      </trkpt>
      <trkpt lat="47.27323" lon="-1.58357">
        <ele>44</ele>
        <time>2023-11-03T13:52:42Z</time>
      </trkpt>
      <trkpt lat="47.27341" lon="-1.58305">
        <ele>42</ele>
        <time>2023-11-03T13:53:35Z</time>
      </trkpt>
      <trkpt lat="47.27345" lon="-1.58278">
        <ele>41</ele>
        <time>2023-11-03T13:54:00Z</time>
      </trkpt>
      <trkpt lat="47.27353" lon="-1.5825">
        <ele>40</ele>
        <time>2023-11-03T13:54:27Z</time>
      </trkpt>
      <trkpt lat="47.2736" lon="-1.58222">
        <ele>41</ele>
        <time>2023-11-03T13:54:54Z</time>
      </trkpt>
      <trkpt lat="47.27368" lon="-1.58193">
        <ele>41</ele>
        <time>2023-11-03T13:55:23Z</time>
      </trkpt>
      <trkpt lat="47.27383" lon="-1.58174">
        <ele>41</ele>
        <time>2023-11-03T13:55:49Z</time>
      </trkpt>
      <trkpt lat="47.27397" lon="-1.58152">
        <ele>42</ele>
        <time>2023-11-03T13:56:16Z</time>
      </trkpt>
      <trkpt lat="47.27401" lon="-1.58125">
        <ele>42</ele>
        <time>2023-11-03T13:56:41Z</time>
      </trkpt>
      <trkpt lat="47.27408" lon="-1.58098">
        <ele>42</ele>
        <time>2023-11-03T13:57:07Z</time>
      </trkpt>
      <trkpt lat="47.2741" lon="-1.58067">
        <ele>42</ele>
        <time>2023-11-03T13:57:36Z</time>
      </trkpt>
      <trkpt lat="47.2741" lon="-1.58038">
        <ele>42</ele>
        <time>2023-11-03T13:58:02Z</time>
      </trkpt>
      <trkpt lat="47.27413" lon="-1.58003">
        <ele>42</ele>
        <time>2023-11-03T13:58:34Z</time>
      </trkpt>
      <trkpt lat="47.27417" lon="-1.57977">
        <ele>41</ele>
        <time>2023-11-03T13:58:58Z</time>
      </trkpt>
      <trkpt lat="47.27423" lon="-1.57952">
        <ele>40</ele>
        <time>2023-11-03T13:59:22Z</time>
      </trkpt>
      <trkpt lat="47.27426" lon="-1.57918">
        <ele>39</ele>
        <time>2023-11-03T13:59:53Z</time>
      </trkpt>
      <trkpt lat="47.27438" lon="-1.57823">
        <ele>38</ele>
        <time>2023-11-03T14:01:21Z</time>
      </trkpt>
      <trkpt lat="47.27441" lon="-1.57787">
        <ele>38</ele>
        <time>2023-11-03T14:01:53Z</time>
      </trkpt>
      <trkpt lat="47.27446" lon="-1.5776">
        <ele>38</ele>
        <time>2023-11-03T14:02:19Z</time>
      </trkpt>
      <trkpt lat="47.27456" lon="-1.57729">
        <ele>39</ele>
        <time>2023-11-03T14:02:50Z</time>
      </trkpt>
      <trkpt lat="47.27467" lon="-1.57705">
        <ele>39</ele>
        <time>2023-11-03T14:03:16Z</time>
      </trkpt>
      <trkpt lat="47.27475" lon="-1.57679">
        <ele>40</ele>
        <time>2023-11-03T14:03:42Z</time>
      </trkpt>
      <trkpt lat="47.27485" lon="-1.57652">
        <ele>41</ele>
        <time>2023-11-03T14:04:10Z</time>
      </trkpt>
      <trkpt lat="47.27491" lon="-1.57627">
        <ele>41</ele>
        <time>2023-11-03T14:04:34Z</time>
      </trkpt>
      <trkpt lat="47.27483" lon="-1.576">
        <ele>41</ele>
        <time>2023-11-03T14:05:00Z</time>
      </trkpt>
      <trkpt lat="47.27471" lon="-1.57576">
        <ele>41</ele>
        <time>2023-11-03T14:05:27Z</time>
      </trkpt>
      <trkpt lat="47.27452" lon="-1.57559">
        <ele>40</ele>
        <time>2023-11-03T14:05:57Z</time>
      </trkpt>
      <trkpt lat="47.27437" lon="-1.5754">
        <ele>40</ele>
        <time>2023-11-03T14:06:23Z</time>
      </trkpt>
      <trkpt lat="47.27416" lon="-1.57528">
        <ele>40</ele>
        <time>2023-11-03T14:06:54Z</time>
      </trkpt>
      <trkpt lat="47.27397" lon="-1.57513">
        <ele>39</ele>
        <time>2023-11-03T14:07:22Z</time>
      </trkpt>
      <trkpt lat="47.27398" lon="-1.57486">
        <ele>39</ele>
        <time>2023-11-03T14:07:47Z</time>
      </trkpt>
      <trkpt lat="47.27401" lon="-1.57457">
        <ele>39</ele>
        <time>2023-11-03T14:08:13Z</time>
      </trkpt>
      <trkpt lat="47.27405" lon="-1.5743">
        <ele>39</ele>
        <time>2023-11-03T14:08:38Z</time>
      </trkpt>
      <trkpt lat="47.2741" lon="-1.57403">
        <ele>39</ele>
        <time>2023-11-03T14:09:04Z</time>
      </trkpt>
      <trkpt lat="47.27413" lon="-1.57372">
        <ele>39</ele>
        <time>2023-11-03T14:09:32Z</time>
      </trkpt>
      <trkpt lat="47.27417" lon="-1.57342">
        <ele>40</ele>
        <time>2023-11-03T14:10:00Z</time>
      </trkpt>
      <trkpt lat="47.27419" lon="-1.57314">
        <ele>40</ele>
        <time>2023-11-03T14:10:25Z</time>
      </trkpt>
      <trkpt lat="47.27428" lon="-1.57225">
        <ele>38</ele>
        <time>2023-11-03T14:11:47Z</time>
      </trkpt>
      <trkpt lat="47.27429" lon="-1.57196">
        <ele>37</ele>
        <time>2023-11-03T14:12:13Z</time>
      </trkpt>
      <trkpt lat="47.27433" lon="-1.57168">
        <ele>37</ele>
        <time>2023-11-03T14:12:39Z</time>
      </trkpt>
      <trkpt lat="47.27452" lon="-1.57159">
        <ele>38</ele>
        <time>2023-11-03T14:13:06Z</time>
      </trkpt>
      <trkpt lat="47.27491" lon="-1.57142">
        <ele>39</ele>
        <time>2023-11-03T14:14:00Z</time>
      </trkpt>
      <trkpt lat="47.27509" lon="-1.57137">
        <ele>40</ele>
        <time>2023-11-03T14:14:24Z</time>
      </trkpt>
      <trkpt lat="47.27525" lon="-1.57124">
        <ele>40</ele>
        <time>2023-11-03T14:14:49Z</time>
      </trkpt>
      <trkpt lat="47.27524" lon="-1.57097">
        <ele>39</ele>
        <time>2023-11-03T14:15:13Z</time>
      </trkpt>
      <trkpt lat="47.2755" lon="-1.5705">
        <ele>38</ele>
        <time>2023-11-03T14:16:08Z</time>
      </trkpt>
      <trkpt lat="47.27567" lon="-1.57027">
        <ele>39</ele>
        <time>2023-11-03T14:16:39Z</time>
      </trkpt>
      <trkpt lat="47.27583" lon="-1.57006">
        <ele>39</ele>
        <time>2023-11-03T14:17:07Z</time>
      </trkpt>
      <trkpt lat="47.27599" lon="-1.56988">
        <ele>38</ele>
        <time>2023-11-03T14:17:34Z</time>
      </trkpt>
      <trkpt lat="47.27616" lon="-1.56964">
        <ele>37</ele>
        <time>2023-11-03T14:18:06Z</time>
      </trkpt>
      <trkpt lat="47.27634" lon="-1.56944">
        <ele>35</ele>
        <time>2023-11-03T14:18:36Z</time>
      </trkpt>
      <trkpt lat="47.27665" lon="-1.56909">
        <ele>33</ele>
        <time>2023-11-03T14:19:28Z</time>
      </trkpt>
      <trkpt lat="47.2768" lon="-1.56889">
        <ele>33</ele>
        <time>2023-11-03T14:19:55Z</time>
      </trkpt>
      <trkpt lat="47.27695" lon="-1.5687">
        <ele>33</ele>
        <time>2023-11-03T14:20:21Z</time>
      </trkpt>
      <trkpt lat="47.27712" lon="-1.56857">
        <ele>34</ele>
        <time>2023-11-03T14:20:47Z</time>
      </trkpt>
      <trkpt lat="47.27728" lon="-1.56844">
        <ele>34</ele>
        <time>2023-11-03T14:21:11Z</time>
      </trkpt>
      <trkpt lat="47.2774" lon="-1.56821">
        <ele>34</ele>
        <time>2023-11-03T14:21:37Z</time>
      </trkpt>
      <trkpt lat="47.27759" lon="-1.56803">
        <ele>33</ele>
        <time>2023-11-03T14:22:08Z</time>
      </trkpt>
      <trkpt lat="47.27773" lon="-1.56782">
        <ele>31</ele>
        <time>2023-11-03T14:22:34Z</time>
      </trkpt>
      <trkpt lat="47.27791" lon="-1.56769">
        <ele>30</ele>
        <time>2023-11-03T14:23:01Z</time>
      </trkpt>
      <trkpt lat="47.27807" lon="-1.56755">
        <ele>29</ele>
        <time>2023-11-03T14:23:26Z</time>
      </trkpt>
      <trkpt lat="47.2782" lon="-1.56735">
        <ele>27</ele>
        <time>2023-11-03T14:23:51Z</time>
      </trkpt>
      <trkpt lat="47.27836" lon="-1.56718">
        <ele>24</ele>
        <time>2023-11-03T14:24:17Z</time>
      </trkpt>
      <trkpt lat="47.27854" lon="-1.56709">
        <ele>22</ele>
        <time>2023-11-03T14:24:43Z</time>
      </trkpt>
      <trkpt lat="47.27871" lon="-1.56699">
        <ele>21</ele>
        <time>2023-11-03T14:25:07Z</time>
      </trkpt>
      <trkpt lat="47.27886" lon="-1.56679">
        <ele>18</ele>
        <time>2023-11-03T14:25:34Z</time>
      </trkpt>
      <trkpt lat="47.27901" lon="-1.56662">
        <ele>16</ele>
        <time>2023-11-03T14:25:59Z</time>
      </trkpt>
      <trkpt lat="47.2792" lon="-1.56666">
        <ele>16</ele>
        <time>2023-11-03T14:26:25Z</time>
      </trkpt>
      <trkpt lat="47.27939" lon="-1.56667">
        <ele>16</ele>
        <time>2023-11-03T14:26:50Z</time>
      </trkpt>
      <trkpt lat="47.27937" lon="-1.56638">
        <ele>16</ele>
        <time>2023-11-03T14:27:17Z</time>
      </trkpt>
      <trkpt lat="47.2793" lon="-1.56611">
        <ele>17</ele>
        <time>2023-11-03T14:27:43Z</time>
      </trkpt>
      <trkpt lat="47.27916" lon="-1.56591">
        <ele>16</ele>
        <time>2023-11-03T14:28:09Z</time>
      </trkpt>
      <trkpt lat="47.27914" lon="-1.56547">
        <ele>18</ele>
        <time>2023-11-03T14:28:49Z</time>
        <extensions>
          <visugpx:TrkExtension xmlns:visugpx="https://www.visugpx.com/editgpx/">
            <visugpx:node>1</visugpx:node>
            </visugpx:TrkExtension>
        </extensions>
      </trkpt>
    </trkseg>
  </trk>
</gpx>